Řízení letového provozu České republiky
Letiste: LKTB Aktualizace: 26.05.2019 23:00:25  UTC
 METAR LKTB 26.05. 23:00 ...
METAR LKTB 262300Z 04004KT CAVOK 16/12 Q1013 NOSIG RMK REG QNH 1009=
 TAF LKTB 26.05. 17:00 ...
TAF LKTB 261700Z 2618/2800 23006KT CAVOK      BECMG 2618/2621 VRB02KT      BECMG 2707/2710 14008KT      TEMPO 2711/2716 22014G24KT 7000 SHRA SCT040CB      BECMG 2716/2718 BKN040      TEMPO 2718/2800 RA=